Time;durP1;ratioP1;P1;durP2;ratioP2;P2;SDS_P1;SDS_P2;PMS_P1;PMS_P2;Temp;Humidity;BMP_temperature;BMP_pressure;BME280_temperature;BME280_humidity;BME280_pressure;Samples;Min_cycle;Max_cycle;Signal;HPM_P1;HPM_P2
2021/12/24 00:00:28;;;;;;;16.73;7.13;;;;;;;;;;5033721;28;20041;-85
2021/12/24 00:02:56;;;;;;;14.65;7.40;;;;;;;;;;5033497;28;20044;-86
2021/12/24 00:05:22;;;;;;;15.55;7.53;;;;;;;;;;5033343;28;20104;-86
2021/12/24 00:07:48;;;;;;;13.75;7.00;;;;;;;;;;5033296;28;20028;-86
2021/12/24 00:10:14;;;;;;;11.82;7.03;;;;;;;;;;5033138;28;20044;-87
2021/12/24 00:12:46;;;;;;;17.15;7.93;;;;;;;;;;5016186;28;20029;-85
2021/12/24 00:17:54;;;;;;;14.73;7.97;;;;;;;;;;5022647;28;20025;-85
2021/12/24 00:36:39;;;;;;;14.07;8.32;;;;;;;;;;5049755;28;20064;-87
2021/12/24 00:39:05;;;;;;;17.35;8.70;;;;;;;;;;5035357;28;20036;-85
2021/12/24 00:41:31;;;;;;;11.55;7.80;;;;;;;;;;5014862;28;20029;-86
2021/12/24 00:43:58;;;;;;;15.55;8.63;;;;;;;;;;5049124;28;20030;-86
2021/12/24 00:46:25;;;;;;;14.15;8.40;;;;;;;;;;5041135;28;20045;-85
2021/12/24 00:48:53;;;;;;;15.32;8.55;;;;;;;;;;5033238;28;20022;-86
2021/12/24 00:51:29;;;;;;;15.57;8.40;;;;;;;;;;5015513;28;20021;-86
2021/12/24 00:56:21;;;;;;;15.60;9.18;;;;;;;;;;5032816;28;20439;-86
2021/12/24 00:58:47;;;;;;;18.55;8.88;;;;;;;;;;5015168;28;20025;-86
2021/12/24 01:01:14;;;;;;;13.18;8.77;;;;;;;;;;5032659;28;20082;-86
2021/12/24 01:03:40;;;;;;;15.20;8.77;;;;;;;;;;5033231;28;20036;-86
2021/12/24 01:06:07;;;;;;;13.50;8.68;;;;;;;;;;5032618;28;20029;-86
2021/12/24 01:08:33;;;;;;;12.25;8.05;;;;;;;;;;5033594;28;20029;-86
2021/12/24 01:11:01;;;;;;;18.95;9.10;;;;;;;;;;5033188;28;20022;-86
2021/12/24 01:13:28;;;;;;;19.33;8.95;;;;;;;;;;5032731;28;20034;-85
2021/12/24 01:18:33;;;;;;;14.52;9.02;;;;;;;;;;5032320;28;20102;-86
2021/12/24 01:26:34;;;;;;;14.57;8.85;;;;;;;;;;5032403;28;20022;-86
2021/12/24 01:44:57;;;;;;;15.60;8.93;;;;;;;;;;5032677;28;20037;-85
2021/12/24 01:47:23;;;;;;;16.42;8.75;;;;;;;;;;5035201;28;20393;-85
2021/12/24 01:49:49;;;;;;;18.20;8.13;;;;;;;;;;5018342;28;20017;-85
2021/12/24 01:52:16;;;;;;;19.67;9.43;;;;;;;;;;5036697;28;20033;-87
2021/12/24 01:54:45;;;;;;;16.52;9.10;;;;;;;;;;5036014;28;20083;-86
2021/12/24 01:57:12;;;;;;;16.80;8.07;;;;;;;;;;5017498;28;20033;-86
2021/12/24 01:59:38;;;;;;;15.82;8.65;;;;;;;;;;5035275;28;20029;-86
2021/12/24 02:02:04;;;;;;;20.02;8.93;;;;;;;;;;5035878;28;20112;-86
2021/12/24 02:04:30;;;;;;;16.55;8.60;;;;;;;;;;5029785;28;20428;-87
2021/12/24 02:06:56;;;;;;;20.25;9.75;;;;;;;;;;5045941;28;20046;-86
2021/12/24 02:09:22;;;;;;;15.05;8.52;;;;;;;;;;5061171;28;20033;-87
2021/12/24 02:11:49;;;;;;;15.18;8.45;;;;;;;;;;5060861;28;20028;-87
2021/12/24 02:14:19;;;;;;;15.88;8.68;;;;;;;;;;5059940;28;20017;-87
2021/12/24 02:30:13;;;;;;;17.13;8.93;;;;;;;;;;5036023;28;20584;-88
2021/12/24 02:32:43;;;;;;;19.55;9.25;;;;;;;;;;5017679;28;20025;-87
2021/12/24 02:35:09;;;;;;;16.63;9.48;;;;;;;;;;5017452;28;20022;-87
2021/12/24 02:37:35;;;;;;;16.90;9.00;;;;;;;;;;5017607;28;20122;-86
2021/12/24 02:40:02;;;;;;;16.85;9.25;;;;;;;;;;5035345;28;20025;-87
2021/12/24 02:42:30;;;;;;;15.15;9.07;;;;;;;;;;5047127;28;20014;-86
2021/12/24 02:44:56;;;;;;;16.05;9.02;;;;;;;;;;5022586;28;20489;-86
2021/12/24 02:55:00;;;;;;;18.88;10.10;;;;;;;;;;5035729;28;20514;-87
2021/12/24 02:57:28;;;;;;;16.80;10.10;;;;;;;;;;5034897;28;20033;-86
2021/12/24 02:59:59;;;;;;;22.42;11.18;;;;;;;;;;5035431;28;20123;-87
2021/12/24 03:02:32;;;;;;;16.70;9.90;;;;;;;;;;5037295;28;20028;-86
2021/12/24 03:04:59;;;;;;;19.20;10.82;;;;;;;;;;5035516;28;20061;-87
2021/12/24 03:07:25;;;;;;;19.08;9.90;;;;;;;;;;5035897;28;20018;-87
2021/12/24 03:09:51;;;;;;;21.75;11.15;;;;;;;;;;5035849;28;20417;-86
2021/12/24 03:12:17;;;;;;;21.25;10.20;;;;;;;;;;5035040;28;20025;-86
2021/12/24 03:14:43;;;;;;;19.92;10.57;;;;;;;;;;5035388;28;20033;-86
2021/12/24 03:17:14;;;;;;;19.48;10.07;;;;;;;;;;5035322;28;20038;-85
2021/12/24 03:19:40;;;;;;;19.87;11.13;;;;;;;;;;5034959;28;20139;-86
2021/12/24 03:24:51;;;;;;;21.83;10.55;;;;;;;;;;5034754;28;20042;-87
2021/12/24 03:27:17;;;;;;;22.92;10.05;;;;;;;;;;5016455;28;20021;-87
2021/12/24 03:29:43;;;;;;;23.05;10.40;;;;;;;;;;5035874;28;20104;-87
2021/12/24 03:32:10;;;;;;;20.35;10.55;;;;;;;;;;5037570;28;20041;-87
2021/12/24 03:34:36;;;;;;;17.38;10.75;;;;;;;;;;5034205;28;20028;-87
2021/12/24 03:37:03;;;;;;;20.02;10.80;;;;;;;;;;5043046;28;20112;-88
2021/12/24 03:39:29;;;;;;;17.60;10.13;;;;;;;;;;5052207;28;20471;-86
2021/12/24 03:41:56;;;;;;;20.65;10.48;;;;;;;;;;5033167;28;20060;-87
2021/12/24 03:44:30;;;;;;;25.35;11.27;;;;;;;;;;5050478;28;20030;-88
2021/12/24 03:47:04;;;;;;;19.15;9.70;;;;;;;;;;5034034;28;20447;-87
2021/12/24 03:49:40;;;;;;;22.83;10.57;;;;;;;;;;5048366;28;20033;-87
2021/12/24 03:54:59;;;;;;;18.17;8.73;;;;;;;;;;5026022;28;20645;-87
2021/12/24 03:57:27;;;;;;;15.95;9.23;;;;;;;;;;5051747;28;20036;-86
2021/12/24 03:59:53;;;;;;;19.05;10.10;;;;;;;;;;5051651;28;20094;-87
2021/12/24 04:02:20;;;;;;;17.02;9.35;;;;;;;;;;5051873;28;20305;-86
2021/12/24 04:04:46;;;;;;;20.73;9.85;;;;;;;;;;5052562;28;20029;-87
2021/12/24 04:07:12;;;;;;;17.80;9.90;;;;;;;;;;5050237;28;20032;-87
2021/12/24 04:09:44;;;;;;;14.30;8.70;;;;;;;;;;5047446;28;20021;-87
2021/12/24 04:12:10;;;;;;;16.75;9.50;;;;;;;;;;5052013;28;20607;-87
2021/12/24 04:14:36;;;;;;;13.18;9.02;;;;;;;;;;5052598;28;20040;-86
2021/12/24 04:17:02;;;;;;;15.90;9.23;;;;;;;;;;5052774;28;20075;-86
2021/12/24 04:24:59;;;;;;;14.43;8.70;;;;;;;;;;5051811;28;20408;-86
2021/12/24 04:27:27;;;;;;;13.68;8.27;;;;;;;;;;5036072;28;20014;-86
2021/12/24 04:30:00;;;;;;;16.80;8.73;;;;;;;;;;5051906;28;20021;-85
2021/12/24 04:32:36;;;;;;;19.90;9.07;;;;;;;;;;5034372;28;20021;-85
2021/12/24 04:35:17;;;;;;;15.70;8.93;;;;;;;;;;5031031;28;20045;-84
2021/12/24 04:51:28;;;;;;;13.63;7.88;;;;;;;;;;5051216;28;20033;-87
2021/12/24 05:05:10;;;;;;;13.40;7.55;;;;;;;;;;5046450;28;20034;-87
2021/12/24 05:08:24;;;;;;;11.45;7.25;;;;;;;;;;5050693;28;20053;-87
2021/12/24 05:10:24;;;;;;;13.05;7.85;;;;;;;;;;5004960;28;20038;-86
2021/12/24 05:12:50;;;;;;;13.40;7.22;;;;;;;;;;4996444;28;20473;-86
2021/12/24 05:15:18;;;;;;;12.40;7.57;;;;;;;;;;5020781;28;20152;-87
2021/12/24 05:22:57;;;;;;;13.50;8.07;;;;;;;;;;5038662;28;20039;-86
2021/12/24 05:25:23;;;;;;;12.90;7.20;;;;;;;;;;5035144;28;20046;-86
2021/12/24 05:27:55;;;;;;;11.32;7.03;;;;;;;;;;5018604;28;20014;-87
2021/12/24 05:30:21;;;;;;;13.88;7.63;;;;;;;;;;5017264;28;20396;-85
2021/12/24 05:32:47;;;;;;;14.43;8.18;;;;;;;;;;5019951;28;20539;-87
2021/12/24 05:35:13;;;;;;;12.35;6.93;;;;;;;;;;5036300;28;20033;-87
2021/12/24 05:37:39;;;;;;;13.65;7.68;;;;;;;;;;5019757;28;20025;-84
2021/12/24 05:40:06;;;;;;;15.90;7.90;;;;;;;;;;5020960;28;20045;-85
2021/12/24 05:42:33;;;;;;;15.25;7.43;;;;;;;;;;5061018;28;20048;-86
2021/12/24 05:45:04;;;;;;;11.82;7.22;;;;;;;;;;5043811;28;20025;-86
2021/12/24 05:47:30;;;;;;;16.65;8.35;;;;;;;;;;5060592;28;20061;-87
2021/12/24 05:49:56;;;;;;;13.55;7.40;;;;;;;;;;5047181;28;20037;-85
2021/12/24 05:52:22;;;;;;;14.52;7.35;;;;;;;;;;5036200;28;20069;-86
2021/12/24 05:54:48;;;;;;;12.85;6.82;;;;;;;;;;5035820;28;20037;-86
2021/12/24 05:57:14;;;;;;;16.90;7.95;;;;;;;;;;5018628;28;20079;-85
2021/12/24 05:59:40;;;;;;;14.93;7.75;;;;;;;;;;5035391;28;20052;-85
2021/12/24 06:02:06;;;;;;;15.45;7.05;;;;;;;;;;5036723;28;20021;-86
2021/12/24 06:04:33;;;;;;;12.55;7.30;;;;;;;;;;5036497;28;20021;-85
2021/12/24 06:06:59;;;;;;;13.80;6.97;;;;;;;;;;5035752;28;20026;-85
2021/12/24 06:09:25;;;;;;;12.40;7.63;;;;;;;;;;5036521;28;20144;-86
2021/12/24 06:11:51;;;;;;;12.60;7.95;;;;;;;;;;5036141;28;20044;-85
2021/12/24 06:14:17;;;;;;;13.93;7.25;;;;;;;;;;5035658;28;20057;-86
2021/12/24 06:17:03;;;;;;;16.58;7.10;;;;;;;;;;5035422;28;20388;-85
2021/12/24 06:19:30;;;;;;;12.23;7.28;;;;;;;;;;5035784;28;20040;-86
2021/12/24 06:21:56;;;;;;;12.15;6.95;;;;;;;;;;5036522;28;20481;-86
2021/12/24 06:24:22;;;;;;;13.68;7.68;;;;;;;;;;5036202;28;20036;-86
2021/12/24 06:26:49;;;;;;;14.32;7.45;;;;;;;;;;5046097;28;20021;-88
2021/12/24 06:29:15;;;;;;;15.95;7.82;;;;;;;;;;5060406;28;20010;-87
2021/12/24 06:31:41;;;;;;;13.48;7.35;;;;;;;;;;5038574;28;20029;-86
2021/12/24 06:34:07;;;;;;;13.38;8.05;;;;;;;;;;5030647;28;20132;-86
2021/12/24 06:36:36;;;;;;;14.38;7.47;;;;;;;;;;5018194;28;20029;-86
2021/12/24 06:39:04;;;;;;;15.50;6.82;;;;;;;;;;5053600;28;20010;-87
2021/12/24 06:41:31;;;;;;;14.55;6.95;;;;;;;;;;5038342;28;20041;-86
2021/12/24 06:43:57;;;;;;;19.55;7.45;;;;;;;;;;5034923;28;20479;-86
2021/12/24 06:46:23;;;;;;;16.02;7.20;;;;;;;;;;5017408;28;20059;-85
2021/12/24 06:48:56;;;;;;;11.15;6.68;;;;;;;;;;5017381;28;20022;-87
2021/12/24 06:51:22;;;;;;;14.05;8.02;;;;;;;;;;5044206;28;20022;-86
2021/12/24 06:53:49;;;;;;;12.02;7.22;;;;;;;;;;5018680;28;20037;-86
2021/12/24 06:56:15;;;;;;;18.35;7.55;;;;;;;;;;5036504;28;20393;-86
2021/12/24 06:58:41;;;;;;;13.00;7.03;;;;;;;;;;5035555;28;20113;-86
2021/12/24 07:01:07;;;;;;;13.07;7.57;;;;;;;;;;5035445;28;20026;-87
2021/12/24 07:03:33;;;;;;;13.18;7.50;;;;;;;;;;5034731;28;20099;-86
2021/12/24 07:05:59;;;;;;;16.40;7.82;;;;;;;;;;5016454;28;20067;-87
2021/12/24 07:08:26;;;;;;;16.55;7.55;;;;;;;;;;5035131;28;20027;-87
2021/12/24 07:10:53;;;;;;;12.93;7.72;;;;;;;;;;5035222;28;20060;-87
2021/12/24 07:13:19;;;;;;;14.98;7.78;;;;;;;;;;5017805;28;20025;-86
2021/12/24 07:15:45;;;;;;;12.25;7.40;;;;;;;;;;5026753;28;20075;-87
2021/12/24 07:18:11;;;;;;;12.73;7.70;;;;;;;;;;5017652;28;20037;-86
2021/12/24 07:20:37;;;;;;;14.65;8.35;;;;;;;;;;5016529;28;20493;-86
2021/12/24 07:23:04;;;;;;;19.88;8.18;;;;;;;;;;5016953;28;20612;-86
2021/12/24 07:25:30;;;;;;;15.60;7.82;;;;;;;;;;5017240;28;20100;-85
2021/12/24 07:27:56;;;;;;;15.63;7.95;;;;;;;;;;5007623;28;20029;-86
2021/12/24 07:30:22;;;;;;;38.80;9.32;;;;;;;;;;5028240;28;20495;-87
2021/12/24 07:32:49;;;;;;;15.40;8.25;;;;;;;;;;5034929;28;20025;-84
2021/12/24 07:35:15;;;;;;;24.88;9.20;;;;;;;;;;5017406;28;20025;-85
2021/12/24 07:37:42;;;;;;;16.02;8.38;;;;;;;;;;5034354;28;20033;-86
2021/12/24 07:40:09;;;;;;;23.52;7.72;;;;;;;;;;5034816;28;20026;-86
2021/12/24 07:42:35;;;;;;;18.00;8.88;;;;;;;;;;5034651;28;20373;-85
2021/12/24 07:45:02;;;;;;;16.88;8.15;;;;;;;;;;5015969;28;20076;-86
2021/12/24 07:47:31;;;;;;;18.30;8.30;;;;;;;;;;5034479;28;20048;-86
2021/12/24 07:50:03;;;;;;;18.35;9.32;;;;;;;;;;5034558;28;20075;-86
2021/12/24 07:52:29;;;;;;;15.38;8.65;;;;;;;;;;5034768;28;20021;-85
2021/12/24 07:54:56;;;;;;;17.05;8.45;;;;;;;;;;5034714;28;20064;-87
2021/12/24 07:57:23;;;;;;;18.77;8.57;;;;;;;;;;5015546;28;20029;-87
2021/12/24 07:59:49;;;;;;;15.90;9.15;;;;;;;;;;5022525;28;20084;-85
2021/12/24 08:02:16;;;;;;;17.30;8.50;;;;;;;;;;5034083;28;20027;-86
2021/12/24 08:04:46;;;;;;;23.45;8.45;;;;;;;;;;5034245;28;20021;-87
2021/12/24 08:07:13;;;;;;;15.93;8.83;;;;;;;;;;5016698;28;20092;-87
2021/12/24 08:09:39;;;;;;;18.65;9.48;;;;;;;;;;5034034;28;20021;-86
2021/12/24 08:12:06;;;;;;;18.58;9.40;;;;;;;;;;5034416;28;20144;-86
2021/12/24 08:14:33;;;;;;;21.77;9.57;;;;;;;;;;5034201;28;20473;-86
2021/12/24 08:16:59;;;;;;;19.80;9.68;;;;;;;;;;5028967;28;20485;-86
2021/12/24 08:19:25;;;;;;;18.17;10.65;;;;;;;;;;5035041;28;20029;-86
2021/12/24 08:21:51;;;;;;;21.92;9.52;;;;;;;;;;5031218;28;20041;-86
2021/12/24 08:24:17;;;;;;;21.73;10.45;;;;;;;;;;5022314;28;20032;-86
2021/12/24 08:26:43;;;;;;;18.55;10.13;;;;;;;;;;5018754;28;20026;-86
2021/12/24 08:29:09;;;;;;;19.38;9.95;;;;;;;;;;5024970;28;20080;-87
2021/12/24 08:31:36;;;;;;;23.67;9.52;;;;;;;;;;5034091;28;20026;-86
2021/12/24 08:34:02;;;;;;;18.48;9.93;;;;;;;;;;5013840;28;20032;-85
2021/12/24 08:36:28;;;;;;;24.23;10.80;;;;;;;;;;5032163;28;20028;-86
2021/12/24 08:38:55;;;;;;;19.38;10.80;;;;;;;;;;5002953;28;20125;-85
2021/12/24 08:41:21;;;;;;;28.20;11.30;;;;;;;;;;5024147;28;20078;-87
2021/12/24 08:43:47;;;;;;;20.45;9.63;;;;;;;;;;5034308;28;20084;-87
2021/12/24 08:46:13;;;;;;;24.63;11.13;;;;;;;;;;5033868;28;20025;-85
2021/12/24 08:48:39;;;;;;;22.27;10.25;;;;;;;;;;5034121;28;20021;-86
2021/12/24 08:51:05;;;;;;;22.05;11.07;;;;;;;;;;5043672;28;20066;-85
2021/12/24 08:53:31;;;;;;;23.55;10.35;;;;;;;;;;5058177;28;20037;-88
2021/12/24 08:55:57;;;;;;;22.50;11.90;;;;;;;;;;5057524;28;20034;-87
2021/12/24 08:58:23;;;;;;;22.15;11.98;;;;;;;;;;5027647;28;20504;-85
2021/12/24 09:00:50;;;;;;;22.85;11.02;;;;;;;;;;5016011;28;20393;-85
2021/12/24 09:03:16;;;;;;;21.73;11.57;;;;;;;;;;5015778;28;20032;-84
2021/12/24 09:05:42;;;;;;;21.60;10.55;;;;;;;;;;5033580;28;20109;-85
2021/12/24 09:08:08;;;;;;;25.48;12.13;;;;;;;;;;5015797;28;20036;-84
2021/12/24 09:10:34;;;;;;;24.20;11.55;;;;;;;;;;5034517;28;20022;-84
2021/12/24 09:13:01;;;;;;;20.30;11.60;;;;;;;;;;5016221;28;20029;-85
2021/12/24 09:15:30;;;;;;;19.65;11.13;;;;;;;;;;5025536;28;20040;-84
2021/12/24 09:17:56;;;;;;;21.10;11.60;;;;;;;;;;5015893;28;20041;-85
2021/12/24 09:20:28;;;;;;;23.77;11.40;;;;;;;;;;5011283;28;20636;-84
2021/12/24 09:22:59;;;;;;;18.08;10.68;;;;;;;;;;5019994;28;20026;-85
2021/12/24 09:25:26;;;;;;;22.02;11.02;;;;;;;;;;5015862;28;20108;-85
2021/12/24 09:27:52;;;;;;;19.67;10.10;;;;;;;;;;5015622;28;20022;-85
2021/12/24 09:30:18;;;;;;;18.63;9.98;;;;;;;;;;5017044;28;20018;-86
2021/12/24 09:32:44;;;;;;;22.40;11.40;;;;;;;;;;5014893;28;20041;-85
2021/12/24 09:35:11;;;;;;;21.00;10.77;;;;;;;;;;5033466;28;20198;-86
2021/12/24 09:37:38;;;;;;;20.02;10.32;;;;;;;;;;5014575;28;20033;-85
2021/12/24 09:40:04;;;;;;;22.23;10.13;;;;;;;;;;5032585;28;20113;-85
2021/12/24 09:42:31;;;;;;;18.50;9.90;;;;;;;;;;5034673;28;20615;-85
2021/12/24 09:44:58;;;;;;;22.00;11.63;;;;;;;;;;5016617;28;20039;-85
2021/12/24 09:47:24;;;;;;;18.52;10.50;;;;;;;;;;5032239;28;20046;-85
2021/12/24 09:49:50;;;;;;;18.15;9.32;;;;;;;;;;5035724;28;20022;-86
2021/12/24 09:52:17;;;;;;;15.25;9.60;;;;;;;;;;5033102;28;20088;-88
2021/12/24 09:54:44;;;;;;;17.90;9.93;;;;;;;;;;5017480;28;20041;-86
2021/12/24 09:57:10;;;;;;;19.92;10.48;;;;;;;;;;5016430;28;20052;-86
2021/12/24 09:59:36;;;;;;;17.80;10.88;;;;;;;;;;5034197;28;20028;-85
2021/12/24 10:02:03;;;;;;;19.60;10.55;;;;;;;;;;5036410;28;20128;-83
2021/12/24 10:04:34;;;;;;;22.48;11.27;;;;;;;;;;5020705;28;20477;-84
2021/12/24 10:07:04;;;;;;;17.13;10.10;;;;;;;;;;5037710;28;20056;-84
2021/12/24 10:09:31;;;;;;;16.13;10.57;;;;;;;;;;5040115;28;20053;-83
2021/12/24 10:12:00;;;;;;;17.70;11.02;;;;;;;;;;5041765;28;20029;-84
2021/12/24 10:14:33;;;;;;;16.85;10.13;;;;;;;;;;5022317;28;20489;-83
2021/12/24 10:17:00;;;;;;;18.15;9.73;;;;;;;;;;5023673;28;20034;-83
2021/12/24 10:19:26;;;;;;;13.30;9.38;;;;;;;;;;5019164;28;20022;-82
2021/12/24 10:22:04;;;;;;;17.17;9.52;;;;;;;;;;5001646;28;20036;-83
2021/12/24 10:24:30;;;;;;;16.27;10.07;;;;;;;;;;5023866;28;20017;-84
2021/12/24 10:26:58;;;;;;;16.98;9.93;;;;;;;;;;5033954;28;20100;-84
2021/12/24 10:29:30;;;;;;;15.32;9.90;;;;;;;;;;5035887;28;20497;-86
2021/12/24 10:31:57;;;;;;;16.65;10.05;;;;;;;;;;5019980;28;20029;-86
2021/12/24 10:34:23;;;;;;;17.52;10.20;;;;;;;;;;5023804;28;20016;-87
2021/12/24 10:36:54;;;;;;;16.85;9.95;;;;;;;;;;5040254;28;20093;-86
2021/12/24 10:39:20;;;;;;;19.75;10.73;;;;;;;;;;5056614;28;20026;-85
2021/12/24 10:41:48;;;;;;;21.52;10.88;;;;;;;;;;5056172;28;20013;-86
2021/12/24 10:44:21;;;;;;;17.75;10.20;;;;;;;;;;5036725;28;20117;-86
2021/12/24 10:46:58;;;;;;;17.13;10.40;;;;;;;;;;5037072;28;20033;-84
2021/12/24 10:49:38;;;;;;;16.67;9.68;;;;;;;;;;5043968;28;20067;-85
2021/12/24 10:55:05;;;;;;;17.48;9.25;;;;;;;;;;5006867;28;20102;-87
2021/12/24 10:57:32;;;;;;;14.93;9.50;;;;;;;;;;5052242;28;20070;-85
2021/12/24 11:00:00;;;;;;;16.63;9.15;;;;;;;;;;5029780;28;20068;-86
2021/12/24 11:02:31;;;;;;;16.30;8.70;;;;;;;;;;5022674;28;20022;-86
2021/12/24 11:04:57;;;;;;;16.77;9.00;;;;;;;;;;5049845;28;20028;-85
2021/12/24 11:07:38;;;;;;;15.40;9.07;;;;;;;;;;5034386;28;20042;-87
2021/12/24 11:10:14;;;;;;;16.77;10.20;;;;;;;;;;5032894;28;20022;-85
2021/12/24 11:12:41;;;;;;;14.57;7.75;;;;;;;;;;5048317;28;20033;-84
2021/12/24 11:15:21;;;;;;;15.85;9.05;;;;;;;;;;5040491;28;20073;-84
2021/12/24 11:17:47;;;;;;;15.15;8.57;;;;;;;;;;5055033;28;20374;-84
2021/12/24 11:20:13;;;;;;;13.23;7.95;;;;;;;;;;5054819;28;20048;-85
2021/12/24 11:23:09;;;;;;;13.93;8.07;;;;;;;;;;5055476;28;20017;-85
2021/12/24 11:25:43;;;;;;;15.60;8.82;;;;;;;;;;5026213;28;20094;-87
2021/12/24 11:28:10;;;;;;;16.42;8.63;;;;;;;;;;5046772;28;20026;-86
2021/12/24 11:30:37;;;;;;;14.25;8.00;;;;;;;;;;5036720;28;20031;-84
2021/12/24 11:33:03;;;;;;;15.70;8.40;;;;;;;;;;5040707;28;20077;-85
2021/12/24 11:35:30;;;;;;;12.85;7.68;;;;;;;;;;5040824;28;20025;-85
2021/12/24 11:37:56;;;;;;;15.07;7.57;;;;;;;;;;5042745;28;20040;-85
2021/12/24 11:40:24;;;;;;;10.80;6.68;;;;;;;;;;5027421;28;20491;-85
2021/12/24 11:42:53;;;;;;;12.25;7.13;;;;;;;;;;5025252;28;20032;-85
2021/12/24 11:45:23;;;;;;;10.95;7.13;;;;;;;;;;5044386;28;20029;-85
2021/12/24 11:47:50;;;;;;;12.63;7.35;;;;;;;;;;5027149;28;20061;-84
2021/12/24 11:50:16;;;;;;;10.35;5.88;;;;;;;;;;5043056;28;20408;-85
2021/12/24 11:53:09;;;;;;;12.52;6.60;;;;;;;;;;5058407;23;20025;-84
2021/12/24 11:55:53;;;;;;;11.63;6.70;;;;;;;;;;5064082;28;20047;-85
2021/12/24 11:58:23;;;;;;;10.85;6.32;;;;;;;;;;5075212;28;20031;-83
2021/12/24 12:07:16;;;;;;;14.10;7.40;;;;;;;;;;5060720;28;20047;-85
2021/12/24 12:10:03;;;;;;;;;;;;;;;;;;;;;
2021/12/24 12:12:38;;;;;;;9.85;6.25;;;;;;;;;;5061237;28;20226;-86
2021/12/24 12:15:23;;;;;;;12.80;7.00;;;;;;;;;;5039929;28;20029;-86
2021/12/24 12:17:51;;;;;;;8.50;6.03;;;;;;;;;;5045760;28;20048;-84
2021/12/24 12:20:49;;;;;;;9.38;6.50;;;;;;;;;;5048852;28;20060;-85
2021/12/24 12:26:38;;;;;;;9.23;5.85;;;;;;;;;;5068619;28;20028;-84
2021/12/24 12:29:40;;;;;;;9.45;6.32;;;;;;;;;;5049868;28;20029;-84
2021/12/24 12:32:18;;;;;;;10.90;6.05;;;;;;;;;;5070146;28;20136;-87
2021/12/24 12:34:44;;;;;;;14.18;6.82;;;;;;;;;;5054570;28;20045;-87
2021/12/24 12:37:28;;;;;;;8.77;5.93;;;;;;;;;;5051722;28;20098;-87
2021/12/24 12:40:23;;;;;;;9.93;5.85;;;;;;;;;;5055343;28;20539;-87
2021/12/24 12:42:50;;;;;;;10.30;5.72;;;;;;;;;;5054752;28;20508;-86
2021/12/24 12:45:17;;;;;;;9.40;5.75;;;;;;;;;;5036079;28;20051;-87
2021/12/24 12:47:56;;;;;;;7.00;5.05;;;;;;;;;;5056740;28;20040;-86
2021/12/24 12:50:22;;;;;;;7.70;5.05;;;;;;;;;;5049778;28;20074;-87
2021/12/24 12:52:51;;;;;;;8.02;5.40;;;;;;;;;;5016448;28;20100;-86
2021/12/24 12:55:28;;;;;;;6.60;5.07;;;;;;;;;;5040477;28;20048;-87
2021/12/24 12:58:14;;;;;;;6.18;4.63;;;;;;;;;;5035727;28;20033;-86
2021/12/24 13:00:40;;;;;;;6.85;4.88;;;;;;;;;;5053341;28;20024;-87
2021/12/24 13:03:09;;;;;;;6.07;4.60;;;;;;;;;;5057528;28;20084;-85
2021/12/24 13:05:39;;;;;;;6.32;4.10;;;;;;;;;;5058047;28;20028;-85
2021/12/24 13:08:12;;;;;;;6.88;4.53;;;;;;;;;;5056560;28;20040;-85
2021/12/24 13:10:39;;;;;;;7.15;4.55;;;;;;;;;;5038866;28;20021;-86
2021/12/24 13:13:05;;;;;;;7.80;4.43;;;;;;;;;;5057177;28;20033;-85
2021/12/24 13:15:34;;;;;;;9.70;4.78;;;;;;;;;;5034885;28;20030;-85
2021/12/24 13:18:05;;;;;;;6.53;4.57;;;;;;;;;;5036393;28;20018;-86
2021/12/24 13:23:21;;;;;;;7.32;4.53;;;;;;;;;;5032275;28;20033;-83
2021/12/24 13:25:47;;;;;;;5.70;4.03;;;;;;;;;;5060614;28;20017;-84
2021/12/24 13:28:13;;;;;;;5.60;4.15;;;;;;;;;;5059234;28;20036;-86
2021/12/24 13:30:39;;;;;;;4.88;3.72;;;;;;;;;;5060974;28;20025;-86
2021/12/24 13:33:07;;;;;;;5.15;3.78;;;;;;;;;;5040512;28;20021;-86
2021/12/24 13:35:44;;;;;;;5.40;4.18;;;;;;;;;;5055524;28;20096;-89
2021/12/24 13:38:23;;;;;;;5.57;3.92;;;;;;;;;;5036883;28;20013;-85
2021/12/24 13:40:49;;;;;;;5.43;4.05;;;;;;;;;;5056175;28;20052;-86
2021/12/24 13:43:15;;;;;;;4.90;3.90;;;;;;;;;;5061828;28;20029;-87
2021/12/24 13:45:43;;;;;;;8.30;4.38;;;;;;;;;;5041116;28;20025;-86
2021/12/24 13:48:12;;;;;;;5.50;3.92;;;;;;;;;;5040324;28;20024;-85
2021/12/24 13:56:14;;;;;;;4.22;3.40;;;;;;;;;;5065723;28;20051;-85
2021/12/24 13:58:40;;;;;;;5.45;3.70;;;;;;;;;;5067760;28;20033;-84
2021/12/24 14:01:06;;;;;;;4.32;2.90;;;;;;;;;;5069007;28;20029;-84
2021/12/24 14:03:33;;;;;;;5.70;3.90;;;;;;;;;;5068290;28;20029;-84
2021/12/24 14:06:01;;;;;;;3.83;3.15;;;;;;;;;;5067601;28;20033;-85
2021/12/24 14:08:29;;;;;;;5.00;3.70;;;;;;;;;;5044174;28;20021;-85
2021/12/24 14:11:03;;;;;;;4.45;3.58;;;;;;;;;;5060526;28;20029;-83
2021/12/24 14:13:33;;;;;;;6.05;4.10;;;;;;;;;;5063577;28;20032;-85
2021/12/24 14:35:15;;;;;;;5.30;3.08;;;;;;;;;;5048978;28;20079;-86
2021/12/24 14:37:42;;;;;;;3.60;3.03;;;;;;;;;;5049004;28;20021;-86
2021/12/24 14:40:08;;;;;;;5.32;3.28;;;;;;;;;;5047982;28;20036;-85
2021/12/24 14:45:22;;;;;;;4.63;3.42;;;;;;;;;;5395430;23;20116;-86
2021/12/24 14:48:20;;;;;;;5.38;3.28;;;;;;;;;;5009060;28;20122;-84
2021/12/24 14:51:11;;;;;;;5.15;3.70;;;;;;;;;;5006171;28;20057;-84
2021/12/24 14:56:19;;;;;;;4.90;3.58;;;;;;;;;;5017183;28;20042;-85
2021/12/24 14:58:59;;;;;;;4.50;3.30;;;;;;;;;;5013149;28;20097;-85
2021/12/24 15:01:29;;;;;;;5.00;3.85;;;;;;;;;;5010213;28;20074;-85
2021/12/24 15:25:00;;;;;;;3.30;2.53;;;;;;;;;;5055810;22;20057;-85
2021/12/24 15:28:23;;;;;;;3.47;2.78;;;;;;;;;;5006170;28;20026;-85
2021/12/24 15:30:52;;;;;;;3.72;2.58;;;;;;;;;;4946976;29;20024;-85
2021/12/24 15:45:02;;;;;;;3.50;2.13;;;;;;;;;;5194840;23;20615;-83
2021/12/24 16:07:29;;;;;;;3.78;2.65;;;;;;;;;;5005559;28;20038;-85
2021/12/24 16:10:17;;;;;;;5.38;2.08;;;;;;;;;;5003800;28;20029;-83
2021/12/24 16:19:04;;;;;;;2.92;2.38;;;;;;;;;;5005967;28;20218;-84
2021/12/24 17:01:13;;;;;;;3.22;1.65;;;;;;;;;;5006835;28;20081;-85
2021/12/24 17:03:39;;;;;;;2.63;1.83;;;;;;;;;;5021396;23;20077;-81
2021/12/24 17:06:05;;;;;;;2.88;2.30;;;;;;;;;;4982576;28;20082;-81
2021/12/24 17:08:31;;;;;;;2.58;2.00;;;;;;;;;;4991363;28;20023;-81
2021/12/24 17:10:57;;;;;;;1.67;1.58;;;;;;;;;;4994904;28;20022;-80
2021/12/24 17:13:24;;;;;;;1.92;1.70;;;;;;;;;;4975828;28;20035;-81
2021/12/24 17:15:50;;;;;;;2.20;1.95;;;;;;;;;;4988376;28;20053;-81
2021/12/24 17:18:16;;;;;;;2.10;1.52;;;;;;;;;;4999267;28;20026;-79
2021/12/24 17:20:42;;;;;;;2.17;1.85;;;;;;;;;;5001989;28;20034;-79
2021/12/24 17:23:08;;;;;;;2.10;1.80;;;;;;;;;;5001992;28;20025;-79
2021/12/24 17:25:34;;;;;;;2.08;1.65;;;;;;;;;;5001764;28;20261;-80
2021/12/24 17:28:00;;;;;;;2.05;1.80;;;;;;;;;;4999823;28;20027;-80
2021/12/24 17:30:26;;;;;;;2.65;1.90;;;;;;;;;;5001448;28;20034;-80
2021/12/24 17:32:52;;;;;;;2.95;2.10;;;;;;;;;;5000502;28;20023;-80
2021/12/24 17:35:19;;;;;;;2.65;2.22;;;;;;;;;;5000831;28;20030;-80
2021/12/24 17:37:45;;;;;;;3.22;2.70;;;;;;;;;;5000561;28;20089;-80
2021/12/24 17:40:12;;;;;;;2.60;2.40;;;;;;;;;;4999632;28;20029;-80
2021/12/24 17:42:39;;;;;;;2.70;2.30;;;;;;;;;;4999905;28;20034;-80
2021/12/24 17:45:05;;;;;;;3.90;2.28;;;;;;;;;;4999234;28;20026;-80
2021/12/24 17:47:32;;;;;;;3.83;3.03;;;;;;;;;;4998942;28;20085;-81
2021/12/24 17:49:58;;;;;;;4.25;3.20;;;;;;;;;;4999233;28;20545;-80
2021/12/24 17:52:24;;;;;;;4.15;3.75;;;;;;;;;;4999686;28;20077;-80
2021/12/24 17:54:50;;;;;;;4.63;3.47;;;;;;;;;;4999290;28;20459;-78
2021/12/24 17:57:16;;;;;;;6.10;4.57;;;;;;;;;;4999919;28;20034;-80
2021/12/24 17:59:42;;;;;;;7.80;5.25;;;;;;;;;;4999200;28;20140;-81
2021/12/24 18:02:08;;;;;;;9.50;6.25;;;;;;;;;;4995622;28;20030;-81
2021/12/24 18:04:34;;;;;;;9.18;5.97;;;;;;;;;;4995577;28;20045;-81
2021/12/24 18:07:01;;;;;;;8.32;5.78;;;;;;;;;;4994921;28;20023;-80
2021/12/24 18:09:28;;;;;;;10.25;6.22;;;;;;;;;;4996669;28;20023;-81
2021/12/24 18:11:54;;;;;;;14.25;7.57;;;;;;;;;;4996845;28;20032;-80
2021/12/24 18:14:20;;;;;;;17.80;8.70;;;;;;;;;;4993071;28;20026;-81
2021/12/24 18:16:47;;;;;;;17.88;9.40;;;;;;;;;;4992710;28;20034;-81
2021/12/24 18:19:14;;;;;;;13.73;9.05;;;;;;;;;;4998486;28;20050;-80
2021/12/24 18:21:40;;;;;;;22.10;9.75;;;;;;;;;;4995653;28;20030;-81
2021/12/24 18:24:06;;;;;;;18.92;10.75;;;;;;;;;;4995878;28;20042;-79
2021/12/24 18:26:34;;;;;;;18.42;11.35;;;;;;;;;;4998192;28;20398;-80
2021/12/24 18:29:00;;;;;;;21.50;11.30;;;;;;;;;;4996232;28;20493;-81
2021/12/24 18:31:30;;;;;;;28.48;13.20;;;;;;;;;;4998440;28;20022;-80
2021/12/24 18:33:56;;;;;;;26.20;13.13;;;;;;;;;;4999654;28;20057;-80
2021/12/24 18:36:22;;;;;;;21.70;13.30;;;;;;;;;;4998505;28;20026;-80
2021/12/24 18:38:48;;;;;;;27.45;13.68;;;;;;;;;;4998701;28;20121;-79
2021/12/24 18:41:17;;;;;;;29.80;14.07;;;;;;;;;;4997393;28;20037;-80
2021/12/24 18:43:43;;;;;;;30.75;13.65;;;;;;;;;;4999189;28;20037;-81
2021/12/24 18:46:10;;;;;;;28.95;14.00;;;;;;;;;;4998832;28;20049;-80
2021/12/24 18:48:36;;;;;;;25.85;14.65;;;;;;;;;;4998255;28;20022;-80
2021/12/24 18:51:02;;;;;;;38.97;14.50;;;;;;;;;;4998918;28;20025;-79